createdAt,value
2022-11-20T00:00:40.643Z,9.80
2022-11-20T00:03:07.351Z,9.80
2022-11-20T00:05:34.295Z,9.70
2022-11-20T00:08:01.079Z,9.80
2022-11-20T00:10:27.771Z,9.80
2022-11-20T00:12:54.457Z,9.90
2022-11-20T00:15:21.136Z,9.90
2022-11-20T00:17:47.854Z,9.90
2022-11-20T00:20:14.778Z,9.90
2022-11-20T00:22:41.467Z,9.90
2022-11-20T00:25:08.286Z,9.90
2022-11-20T00:27:35.051Z,9.80
2022-11-20T00:30:01.738Z,9.80
2022-11-20T00:32:28.409Z,9.80
2022-11-20T00:34:55.179Z,9.80
2022-11-20T00:37:21.848Z,9.80
2022-11-20T00:39:48.520Z,9.90
2022-11-20T00:42:15.291Z,9.90
2022-11-20T00:44:41.972Z,9.90
2022-11-20T00:47:08.706Z,9.80
2022-11-20T00:49:35.446Z,9.60
2022-11-20T00:52:02.134Z,9.60
2022-11-20T00:54:29.064Z,9.50
2022-11-20T00:56:55.735Z,9.40
2022-11-20T00:59:22.619Z,9.40
2022-11-20T01:01:49.485Z,9.40
2022-11-20T01:04:16.193Z,9.40
2022-11-20T01:06:42.892Z,9.40
2022-11-20T01:09:13.359Z,9.50
2022-11-20T01:11:40.938Z,9.50
2022-11-20T01:14:08.595Z,9.60
2022-11-20T01:16:36.168Z,9.60
2022-11-20T01:19:04.078Z,9.60
2022-11-20T01:21:31.485Z,9.70
2022-11-20T01:23:58.510Z,9.70
2022-11-20T01:26:29.219Z,9.80
2022-11-20T01:28:56.043Z,9.80
2022-11-20T01:31:25.693Z,9.80
2022-11-20T01:33:53.221Z,9.80
2022-11-20T01:36:20.312Z,9.80
2022-11-20T01:38:47.143Z,9.80
2022-11-20T01:41:36.931Z,9.80
2022-11-20T01:44:03.895Z,9.80
2022-11-20T01:46:31.149Z,9.70
2022-11-20T01:49:02.460Z,9.60
2022-11-20T01:51:45.483Z,9.30
2022-11-20T01:54:16.878Z,9.10
2022-11-20T01:56:43.970Z,9.10
2022-11-20T01:59:10.876Z,9.20
2022-11-20T02:01:37.586Z,9.10
2022-11-20T02:04:04.414Z,9.10
2022-11-20T02:06:32.083Z,9.10
2022-11-20T02:08:58.808Z,9.10
2022-11-20T02:11:25.485Z,9.00
2022-11-20T02:13:52.212Z,9.00
2022-11-20T02:16:18.919Z,9.00
2022-11-20T02:18:45.753Z,9.10
2022-11-20T02:21:21.753Z,9.10
2022-11-20T02:24:11.784Z,9.00
2022-11-20T02:26:48.541Z,8.90
2022-11-20T02:29:16.485Z,9.00
2022-11-20T02:31:43.325Z,9.10
2022-11-20T02:34:10.119Z,9.20
2022-11-20T02:36:36.949Z,9.20
2022-11-20T02:39:04.247Z,9.10
2022-11-20T02:41:34.638Z,8.80
2022-11-20T02:44:01.434Z,8.80
2022-11-20T02:46:28.209Z,8.80
2022-11-20T02:48:54.946Z,8.90
2022-11-20T02:51:21.700Z,8.90
2022-11-20T02:53:48.345Z,9.00
2022-11-20T02:56:15.081Z,9.10
2022-11-20T02:58:41.893Z,9.10
2022-11-20T03:01:08.686Z,9.10
2022-11-20T03:03:35.436Z,9.10
2022-11-20T03:06:02.206Z,9.00
2022-11-20T03:08:29.335Z,9.10
2022-11-20T03:10:56.074Z,9.10
2022-11-20T03:13:22.915Z,9.00
2022-11-20T03:15:50.157Z,9.10
2022-11-20T03:18:16.934Z,9.10
2022-11-20T03:20:43.622Z,9.10
2022-11-20T03:23:10.243Z,9.10
2022-11-20T03:25:36.949Z,9.00
2022-11-20T03:28:03.663Z,9.10
2022-11-20T03:30:30.930Z,9.10
2022-11-20T03:32:57.830Z,9.10
2022-11-20T03:35:24.559Z,9.00
2022-11-20T03:37:51.230Z,8.80
2022-11-20T03:40:18.019Z,8.80
2022-11-20T03:42:47.495Z,8.80
2022-11-20T03:45:15.097Z,8.80
2022-11-20T03:47:41.753Z,8.70
2022-11-20T03:50:09.086Z,8.70
2022-11-20T03:52:35.736Z,8.80
2022-11-20T03:55:02.485Z,8.90
2022-11-20T03:57:29.224Z,8.90
2022-11-20T03:59:56.043Z,9.00
2022-11-20T04:02:22.735Z,9.00
2022-11-20T04:04:49.516Z,9.00
2022-11-20T04:07:16.526Z,8.90
2022-11-20T04:09:43.307Z,8.90
2022-11-20T04:12:10.018Z,8.80
2022-11-20T04:14:37.039Z,8.70
2022-11-20T04:17:04.251Z,8.60
2022-11-20T04:19:30.987Z,8.50
2022-11-20T04:21:57.652Z,8.60
2022-11-20T04:24:24.330Z,8.60
2022-11-20T04:26:51.018Z,8.60
2022-11-20T04:29:17.788Z,8.60
2022-11-20T04:31:44.556Z,8.60
2022-11-20T04:34:11.985Z,8.40
2022-11-20T04:36:38.667Z,8.40
2022-11-20T04:39:06.128Z,8.30
2022-11-20T04:41:33.686Z,8.40
2022-11-20T04:44:03.400Z,8.50
2022-11-20T04:46:34.882Z,8.60
2022-11-20T04:49:01.550Z,8.50
2022-11-20T04:51:28.276Z,8.40
2022-11-20T04:53:54.957Z,8.50
2022-11-20T04:56:21.652Z,8.60
2022-11-20T04:58:48.395Z,8.60
2022-11-20T05:01:16.080Z,8.60
2022-11-20T05:03:43.013Z,8.50
2022-11-20T05:06:10.085Z,8.40
2022-11-20T05:08:36.767Z,8.30
2022-11-20T05:11:04.202Z,8.30
2022-11-20T05:13:30.919Z,8.20
2022-11-20T05:16:02.024Z,8.30
2022-11-20T05:18:28.942Z,8.30
2022-11-20T05:20:56.300Z,8.30
2022-11-20T05:23:22.981Z,8.20
2022-11-20T05:25:52.366Z,8.30
2022-11-20T05:28:22.721Z,8.50
2022-11-20T05:30:49.525Z,8.50
2022-11-20T05:33:16.319Z,8.70
2022-11-20T05:35:43.051Z,8.80
2022-11-20T05:38:09.733Z,8.80
2022-11-20T05:40:36.472Z,8.80
2022-11-20T05:43:03.177Z,8.90
2022-11-20T05:45:29.939Z,8.90
2022-11-20T05:48:00.744Z,8.90
2022-11-20T05:50:28.070Z,8.90
2022-11-20T05:52:54.811Z,8.90
2022-11-20T05:55:21.579Z,8.90
2022-11-20T05:57:48.266Z,8.90
2022-11-20T06:00:15.313Z,8.90
2022-11-20T06:02:42.050Z,8.80
2022-11-20T06:05:08.986Z,8.90
2022-11-20T06:07:35.686Z,8.80
2022-11-20T06:10:02.467Z,8.90
2022-11-20T06:12:29.162Z,8.90
2022-11-20T06:14:55.773Z,8.90
2022-11-20T06:17:22.429Z,8.80
2022-11-20T06:19:49.136Z,8.80
2022-11-20T06:22:15.915Z,8.80
2022-11-20T06:24:42.594Z,8.70
2022-11-20T06:27:09.285Z,8.70
2022-11-20T06:29:35.998Z,8.60
2022-11-20T06:32:02.876Z,8.50
2022-11-20T06:34:29.604Z,8.50
2022-11-20T06:36:56.307Z,8.60
2022-11-20T06:39:23.172Z,8.40
2022-11-20T06:41:51.336Z,8.20
2022-11-20T06:44:21.088Z,8.20
2022-11-20T06:46:47.756Z,8.20
2022-11-20T06:49:14.395Z,8.20
2022-11-20T06:51:41.070Z,8.20
2022-11-20T06:54:07.778Z,8.20
2022-11-20T06:56:34.460Z,8.10
2022-11-20T06:59:04.488Z,8.20
2022-11-20T07:01:31.164Z,8.20
2022-11-20T07:03:57.825Z,8.10
2022-11-20T07:06:24.519Z,8.10
2022-11-20T07:08:52.360Z,8.10
2022-11-20T07:11:19.022Z,8.20
2022-11-20T07:13:45.718Z,8.30
2022-11-20T07:16:12.400Z,8.50
2022-11-20T07:18:39.329Z,8.50
2022-11-20T07:21:06.879Z,8.60
2022-11-20T07:23:33.559Z,8.60
2022-11-20T07:26:03.809Z,8.70
2022-11-20T07:28:30.495Z,8.80
2022-11-20T07:30:57.167Z,8.90
2022-11-20T07:33:24.005Z,9.00
2022-11-20T07:35:50.697Z,8.80
2022-11-20T07:38:17.381Z,8.70
2022-11-20T07:40:44.266Z,8.60
2022-11-20T07:43:10.998Z,8.70
2022-11-20T07:45:37.628Z,8.70
2022-11-20T07:48:04.494Z,8.70
2022-11-20T07:50:31.262Z,8.70
2022-11-20T07:53:04.651Z,8.60
2022-11-20T07:55:31.368Z,8.60
2022-11-20T07:57:58.345Z,8.60
2022-11-20T08:00:25.166Z,8.60
2022-11-20T08:02:51.900Z,8.60
2022-11-20T08:05:18.642Z,8.50
2022-11-20T08:07:45.418Z,8.60
2022-11-20T08:10:13.087Z,8.70
2022-11-20T08:13:08.514Z,8.70
2022-11-20T08:15:35.300Z,8.70
2022-11-20T08:18:30.104Z,8.80
2022-11-20T08:20:55.655Z,8.80
2022-11-20T08:23:23.484Z,8.80
2022-11-20T08:25:50.283Z,8.80
2022-11-20T08:28:21.404Z,8.80
2022-11-20T08:30:48.998Z,8.70
2022-11-20T08:33:15.663Z,8.70
2022-11-20T08:35:43.545Z,8.70
2022-11-20T08:38:10.370Z,8.70
2022-11-20T08:40:37.107Z,8.70
2022-11-20T08:43:03.864Z,8.70
2022-11-20T08:45:34.037Z,8.60
2022-11-20T08:48:04.838Z,8.60
2022-11-20T08:50:33.319Z,8.50
2022-11-20T08:53:06.585Z,8.50
2022-11-20T08:55:33.438Z,8.60
2022-11-20T08:58:04.555Z,8.60
2022-11-20T09:00:31.225Z,8.60
2022-11-20T09:02:59.486Z,8.70
2022-11-20T09:05:26.184Z,8.80
2022-11-20T09:07:52.870Z,8.90
2022-11-20T09:10:24.366Z,9.00
2022-11-20T09:12:52.732Z,9.10
2022-11-20T09:15:19.754Z,9.10
2022-11-20T09:17:53.138Z,9.10
2022-11-20T09:20:20.058Z,9.20
2022-11-20T09:22:46.744Z,9.30
2022-11-20T09:25:13.538Z,9.30
2022-11-20T09:27:42.440Z,9.30
2022-11-20T09:30:09.420Z,9.40
2022-11-20T09:32:36.751Z,9.40
2022-11-20T09:35:03.543Z,9.30
2022-11-20T09:37:30.180Z,9.20
2022-11-20T09:43:25.209Z,9.30
2022-11-20T09:45:51.898Z,9.40
2022-11-20T09:48:21.442Z,9.50
2022-11-20T09:50:51.026Z,9.60
2022-11-20T09:53:17.772Z,9.50
2022-11-20T09:55:44.475Z,9.20
2022-11-20T09:58:22.719Z,9.20
2022-11-20T10:00:49.506Z,9.20
2022-11-20T10:03:18.375Z,9.30
2022-11-20T10:05:48.850Z,9.40
2022-11-20T10:08:18.715Z,9.40
2022-11-20T10:10:50.762Z,9.40
2022-11-20T10:13:28.072Z,9.40
2022-11-20T10:16:00.660Z,9.30
2022-11-20T10:18:33.425Z,9.20
2022-11-20T10:21:12.486Z,9.10
2022-11-20T10:23:57.958Z,9.00
2022-11-20T10:26:24.677Z,8.90
2022-11-20T10:28:57.240Z,8.90
2022-11-20T10:31:35.525Z,8.80
2022-11-20T10:34:12.046Z,8.70
2022-11-20T10:36:46.033Z,8.60
2022-11-20T10:39:31.271Z,8.50
2022-11-20T10:41:58.231Z,8.40
2022-11-20T10:44:47.115Z,8.40
2022-11-20T10:47:15.221Z,8.40
2022-11-20T10:49:42.068Z,8.50
2022-11-20T10:52:14.196Z,8.60
2022-11-20T10:54:40.930Z,8.70
2022-11-20T10:57:22.578Z,8.90
2022-11-20T10:59:52.271Z,9.00
2022-11-20T11:02:23.151Z,8.90
2022-11-20T11:04:53.463Z,8.90
2022-11-20T11:07:26.320Z,9.10
2022-11-20T11:09:53.655Z,9.10
2022-11-20T11:12:21.189Z,9.20
2022-11-20T11:14:54.602Z,9.30
2022-11-20T11:17:22.247Z,9.40
2022-11-20T11:20:12.687Z,9.50
2022-11-20T11:23:05.714Z,9.60
2022-11-20T11:25:36.171Z,9.60
2022-11-20T11:28:02.975Z,9.70
2022-11-20T11:30:31.273Z,9.70
2022-11-20T11:33:07.957Z,9.70
2022-11-20T11:35:34.760Z,9.80
2022-11-20T11:38:08.396Z,9.80
2022-11-20T11:40:36.197Z,9.90
2022-11-20T11:43:05.248Z,9.90
2022-11-20T11:45:31.943Z,9.90
2022-11-20T11:47:59.032Z,9.70
2022-11-20T11:50:26.237Z,9.70
2022-11-20T11:53:02.101Z,9.60
2022-11-20T11:55:34.876Z,9.50
2022-11-20T11:58:20.455Z,9.50
2022-11-20T12:01:06.040Z,9.40
2022-11-20T12:03:36.621Z,9.50
2022-11-20T12:06:06.503Z,9.60
2022-11-20T12:08:33.313Z,9.70
2022-11-20T12:11:06.134Z,9.80
2022-11-20T12:13:46.524Z,9.80
2022-11-20T12:16:14.491Z,9.80
2022-11-20T12:18:42.036Z,9.80
2022-11-20T12:21:08.729Z,9.80
2022-11-20T12:23:54.736Z,9.90
2022-11-20T12:26:30.787Z,10.00
2022-11-20T12:29:00.896Z,9.90
2022-11-20T12:31:30.657Z,9.80
2022-11-20T12:34:19.364Z,9.80
2022-11-20T12:37:09.608Z,9.90
2022-11-20T12:39:36.817Z,10.00
2022-11-20T12:42:31.036Z,9.90
2022-11-20T12:45:12.950Z,9.90
2022-11-20T12:47:42.735Z,9.90
2022-11-20T12:50:27.974Z,9.90
2022-11-20T12:52:57.626Z,9.80
2022-11-20T12:55:36.348Z,9.70
2022-11-20T12:58:12.273Z,9.70
2022-11-20T13:00:39.983Z,9.70
2022-11-20T13:03:08.853Z,9.80
2022-11-20T13:05:50.940Z,9.80
2022-11-20T13:08:28.877Z,9.80
2022-11-20T13:11:01.095Z,9.90
2022-11-20T13:13:34.113Z,9.90
2022-11-20T13:16:05.785Z,9.70
2022-11-20T13:18:35.174Z,9.80
2022-11-20T13:21:01.910Z,9.80
2022-11-20T13:23:28.765Z,9.80
2022-11-20T13:26:15.060Z,9.80
2022-11-20T13:28:41.921Z,9.90
2022-11-20T13:31:23.833Z,9.90
2022-11-20T13:33:50.588Z,9.90
2022-11-20T13:36:24.122Z,9.90
2022-11-20T13:38:52.032Z,9.90
2022-11-20T13:41:38.968Z,9.90
2022-11-20T13:44:15.735Z,9.70
2022-11-20T13:46:46.072Z,9.60
2022-11-20T13:49:18.856Z,9.50
2022-11-20T13:51:47.180Z,9.60
2022-11-20T13:54:52.556Z,9.60
2022-11-20T13:57:19.908Z,9.70
2022-11-20T13:59:59.639Z,9.70
2022-11-20T14:02:27.631Z,9.70
2022-11-20T14:04:54.960Z,9.70
2022-11-20T14:07:22.901Z,9.60
2022-11-20T14:09:53.735Z,9.60
2022-11-20T14:12:22.411Z,9.60
2022-11-20T14:14:52.840Z,9.50
2022-11-20T14:17:20.393Z,9.60
2022-11-20T14:19:47.543Z,9.50
2022-11-20T14:22:18.370Z,9.40
2022-11-20T14:24:45.140Z,9.30
2022-11-20T14:27:13.337Z,9.20
2022-11-20T14:29:41.621Z,9.10
2022-11-20T14:32:09.274Z,9.10
2022-11-20T14:34:39.700Z,9.10
2022-11-20T14:37:06.910Z,9.20
2022-11-20T14:39:34.291Z,9.20
2022-11-20T14:42:01.044Z,9.20
2022-11-20T14:44:30.399Z,9.20
2022-11-20T14:46:57.149Z,9.20
2022-11-20T14:49:23.898Z,9.30
2022-11-20T14:51:59.214Z,9.30
2022-11-20T14:54:27.147Z,9.30
2022-11-20T14:57:00.780Z,9.20
2022-11-20T14:59:27.888Z,9.10
2022-11-20T15:01:55.694Z,9.00
2022-11-20T15:04:22.658Z,9.00
2022-11-20T15:06:50.762Z,9.00
2022-11-20T15:09:17.508Z,9.10
2022-11-20T15:11:53.222Z,9.10
2022-11-20T15:14:19.999Z,9.00
2022-11-20T15:16:46.796Z,8.90
2022-11-20T15:19:17.004Z,8.80
2022-11-20T15:21:43.715Z,8.70
2022-11-20T15:24:10.437Z,8.70
2022-11-20T15:26:38.023Z,8.70
2022-11-20T15:29:04.741Z,8.80
2022-11-20T15:31:31.503Z,8.70
2022-11-20T15:33:58.918Z,8.80
2022-11-20T15:36:25.701Z,8.90
2022-11-20T15:38:52.438Z,8.90
2022-11-20T15:41:19.206Z,8.90
2022-11-20T15:43:46.698Z,8.80
2022-11-20T15:46:16.952Z,8.80
2022-11-20T15:48:47.902Z,8.90
2022-11-20T15:51:50.670Z,9.00
2022-11-20T15:54:22.169Z,9.00
2022-11-20T15:56:49.778Z,8.90
2022-11-20T15:59:16.593Z,8.90
2022-11-20T16:01:43.403Z,8.90
2022-11-20T16:04:14.030Z,9.00
2022-11-20T16:06:40.763Z,8.90
2022-11-20T16:09:07.780Z,9.00
2022-11-20T16:11:36.431Z,9.00
2022-11-20T16:14:22.183Z,8.90
2022-11-20T16:16:49.128Z,8.90
2022-11-20T16:19:16.629Z,8.70
2022-11-20T16:21:43.451Z,8.60
2022-11-20T16:24:11.745Z,8.60
2022-11-20T16:26:38.534Z,8.70
2022-11-20T16:29:06.139Z,8.70
2022-11-20T16:31:33.069Z,8.70
2022-11-20T16:34:00.780Z,8.60
2022-11-20T16:36:28.523Z,8.50
2022-11-20T16:38:55.970Z,8.40
2022-11-20T16:41:23.066Z,8.30
2022-11-20T16:43:50.438Z,8.30
2022-11-20T16:46:17.828Z,8.40
2022-11-20T16:48:44.626Z,8.30
2022-11-20T16:51:12.067Z,8.30
2022-11-20T16:53:39.075Z,8.40
2022-11-20T16:56:13.483Z,8.40
2022-11-20T16:58:40.250Z,8.40
2022-11-20T17:01:10.895Z,8.40
2022-11-20T17:03:38.363Z,8.40
2022-11-20T17:06:14.724Z,8.30
2022-11-20T17:08:41.574Z,8.40
2022-11-20T17:11:08.472Z,8.40
2022-11-20T17:13:39.711Z,8.40
2022-11-20T17:16:07.504Z,8.40
2022-11-20T17:18:34.260Z,8.30
2022-11-20T17:21:04.621Z,8.30
2022-11-20T17:23:31.919Z,8.30
2022-11-20T17:26:08.282Z,8.40
2022-11-20T17:28:35.255Z,8.50
2022-11-20T17:31:02.582Z,8.60
2022-11-20T17:33:29.516Z,8.50
2022-11-20T17:35:56.307Z,8.60
2022-11-20T17:38:23.081Z,8.60
2022-11-20T17:40:49.865Z,8.50
2022-11-20T17:43:16.667Z,8.50
2022-11-20T17:45:43.866Z,8.50
2022-11-20T17:48:10.837Z,8.50
2022-11-20T17:50:37.618Z,8.50
2022-11-20T17:53:04.343Z,8.60
2022-11-20T17:55:55.430Z,8.60
2022-11-20T17:58:22.609Z,8.70
2022-11-20T18:00:49.366Z,8.70
2022-11-20T18:03:16.125Z,8.70
2022-11-20T18:05:42.828Z,8.80
2022-11-20T18:08:09.568Z,8.80
2022-11-20T18:10:36.348Z,8.80
2022-11-20T18:13:03.157Z,8.80
2022-11-20T18:15:30.057Z,8.90
2022-11-20T18:17:56.808Z,8.80
2022-11-20T18:20:35.225Z,8.80
2022-11-20T18:23:03.433Z,8.80
2022-11-20T18:25:32.962Z,8.80
2022-11-20T18:27:59.711Z,8.70
2022-11-20T18:30:26.527Z,8.70
2022-11-20T18:32:53.279Z,8.70
2022-11-20T18:35:19.968Z,8.70
2022-11-20T18:37:46.713Z,8.70
2022-11-20T18:40:13.904Z,8.70
2022-11-20T18:42:59.034Z,8.70
2022-11-20T18:45:25.789Z,8.70
2022-11-20T18:47:52.512Z,8.70
2022-11-20T18:50:19.256Z,8.80
2022-11-20T18:52:47.044Z,8.70
2022-11-20T18:55:13.876Z,8.70
2022-11-20T18:57:41.079Z,8.70
2022-11-20T19:00:09.570Z,8.70
2022-11-20T19:02:42.767Z,8.80
2022-11-20T19:05:10.916Z,8.80
2022-11-20T19:07:37.653Z,8.70
2022-11-20T19:10:05.230Z,8.80
2022-11-20T19:12:31.989Z,8.70
2022-11-20T19:14:58.676Z,8.80
2022-11-20T19:17:25.415Z,8.80
2022-11-20T19:19:54.935Z,8.80
2022-11-20T19:22:21.871Z,8.80
2022-11-20T19:24:48.908Z,8.80
2022-11-20T19:27:15.603Z,8.80
2022-11-20T19:29:42.323Z,8.80
2022-11-20T19:32:09.033Z,8.80
2022-11-20T19:34:35.774Z,8.80
2022-11-20T19:37:02.531Z,8.80
2022-11-20T19:39:29.262Z,8.80
2022-11-20T19:41:56.137Z,8.80
2022-11-20T19:44:22.838Z,8.80
2022-11-20T19:46:50.951Z,8.80
2022-11-20T19:49:17.738Z,8.80
2022-11-20T19:51:45.739Z,8.80
2022-11-20T19:54:12.554Z,8.90
2022-11-20T19:56:39.272Z,8.90
2022-11-20T19:59:06.036Z,8.90
2022-11-20T20:01:32.843Z,8.80
2022-11-20T20:04:03.645Z,8.80
2022-11-20T20:06:30.498Z,8.80
2022-11-20T20:08:57.783Z,8.80
2022-11-20T20:11:24.933Z,8.70
2022-11-20T20:13:51.732Z,8.70
2022-11-20T20:16:19.617Z,8.70
2022-11-20T20:18:46.378Z,8.70
2022-11-20T20:21:13.830Z,8.70
2022-11-20T20:23:40.597Z,8.70
2022-11-20T20:26:07.624Z,8.60
2022-11-20T20:28:34.715Z,8.60
2022-11-20T20:31:07.834Z,8.60
2022-11-20T20:33:35.360Z,8.60
2022-11-20T20:36:02.066Z,8.60
2022-11-20T20:38:28.798Z,8.60
2022-11-20T20:40:55.623Z,8.50
2022-11-20T20:43:22.405Z,8.50
2022-11-20T20:45:49.260Z,8.50
2022-11-20T20:48:16.567Z,8.50
2022-11-20T20:50:43.529Z,8.50
2022-11-20T20:53:10.389Z,8.40
2022-11-20T20:55:37.099Z,8.30
2022-11-20T20:58:03.812Z,8.10
2022-11-20T21:00:30.521Z,8.20
2022-11-20T21:02:57.195Z,8.20
2022-11-20T21:05:23.879Z,8.20
2022-11-20T21:08:09.204Z,8.20
2022-11-20T21:10:35.930Z,8.20
2022-11-20T21:13:02.634Z,8.20
2022-11-20T21:15:29.408Z,8.30
2022-11-20T21:17:56.227Z,8.30
2022-11-20T21:20:41.390Z,8.30
2022-11-20T21:23:08.560Z,8.40
2022-11-20T21:25:36.426Z,8.50
2022-11-20T21:28:03.148Z,8.50
2022-11-20T21:30:29.883Z,8.50
2022-11-20T21:32:56.556Z,8.60
2022-11-20T21:35:23.295Z,8.60
2022-11-20T21:37:49.984Z,8.60
2022-11-20T21:40:16.795Z,8.50
2022-11-20T21:42:43.455Z,8.60
2022-11-20T21:45:10.137Z,8.60
2022-11-20T21:47:36.826Z,8.60
2022-11-20T21:50:03.664Z,8.60
2022-11-20T21:52:30.460Z,8.60
2022-11-20T21:54:59.253Z,8.60
2022-11-20T21:57:25.939Z,8.60
2022-11-20T21:59:52.647Z,8.60
2022-11-20T22:02:19.332Z,8.60
2022-11-20T22:04:45.976Z,8.60
2022-11-20T22:07:12.711Z,8.60
2022-11-20T22:09:39.440Z,8.60
2022-11-20T22:12:06.176Z,8.60
2022-11-20T22:14:32.882Z,8.60
2022-11-20T22:16:59.574Z,8.70
2022-11-20T22:19:26.283Z,8.70
2022-11-20T22:21:53.069Z,8.70
2022-11-20T22:24:20.314Z,8.70
2022-11-20T22:26:48.164Z,8.70
2022-11-20T22:29:15.555Z,8.70
2022-11-20T22:31:42.291Z,8.70
2022-11-20T22:34:10.235Z,8.60
2022-11-20T22:36:37.004Z,8.60
2022-11-20T22:39:03.847Z,8.60
2022-11-20T22:41:30.796Z,8.60
2022-11-20T22:44:07.014Z,8.60
2022-11-20T22:46:34.452Z,8.60
2022-11-20T22:49:05.269Z,8.60
2022-11-20T22:51:32.858Z,8.60
2022-11-20T22:53:59.732Z,8.60
2022-11-20T22:56:26.721Z,8.60
2022-11-20T22:58:53.608Z,8.60
2022-11-20T23:01:20.291Z,8.50
2022-11-20T23:03:48.239Z,8.60
2022-11-20T23:06:15.206Z,8.60
2022-11-20T23:08:41.973Z,8.60
2022-11-20T23:11:09.541Z,8.60
2022-11-20T23:13:36.387Z,8.70
2022-11-20T23:16:04.117Z,8.70
2022-11-20T23:18:30.868Z,8.70
2022-11-20T23:20:57.684Z,8.70
2022-11-20T23:23:24.422Z,8.80
2022-11-20T23:25:51.122Z,8.80
2022-11-20T23:28:17.866Z,8.80
2022-11-20T23:30:46.051Z,8.80
2022-11-20T23:33:12.772Z,8.70
2022-11-20T23:35:40.280Z,8.80
2022-11-20T23:38:06.999Z,8.80
2022-11-20T23:40:37.485Z,8.80
2022-11-20T23:43:17.085Z,8.80
2022-11-20T23:45:44.474Z,8.80
2022-11-20T23:48:11.287Z,8.80
2022-11-20T23:50:38.065Z,8.80
2022-11-20T23:53:04.983Z,8.80
2022-11-20T23:55:31.738Z,8.70
2022-11-20T23:57:58.528Z,8.70
